LSMM Airport Information

Runway Information
Runway 10 Length 6571 ft width 130 ft
Elevation 1885 ft Threshold 0 ft Heading 95
Runway 28 Length 6571 ft Width 130 ft
Elevation 1895 ft Threshold 0 ft Heading 275
Airport Frequencies
Type ARR Name ARR/DEP Frequency 37.012 MHZ
Type ARR Name ARR/DEP Frequency 138.275 MHZ
Type INFO Name INFO Frequency 138.05 MHZ
Type TWR Name TWR Frequency 130.15 MHZ
Airport Navaids
Airport Weather Information & NOTAM
ADDS - METARS form results

(0008 UTC 18 January 2018)
 
METAR text: LSMM 172350Z AUTO 31014G25KT 270V020 9999NDV FEW032 BKN047 OVC064 03/M05 Q1018 RMK
Conditions at: LSMM (MEIRINGEN , CH) observed 2350 UTC 17 January 2018
Temperature: 3.0°C (37°F)
Dewpoint: -5.0°C (23°F) [RH = 56%]
Pressure (altimeter): 30.06 inches Hg (1018.0 mb)
Winds: from the NW (310 degrees) at 16 MPH (14 knots; 7.3 m/s)
gusting to 29 MPH (25 knots; 13.0 m/s)
Visibility: missing
Ceiling: 4700 feet AGL
Clouds: few clouds at 3200 feet AGL
broken clouds at 4700 feet AGL
overcast cloud deck at 6400 feet AGL
Weather: no significant weather observed at this time